createdAt,value
2023-03-28T00:04:25.208Z,2.21
2023-03-28T00:10:48.287Z,2.23
2023-03-28T00:17:08.183Z,2.26
2023-03-28T00:23:31.172Z,2.25
2023-03-28T00:29:51.210Z,2.22
2023-03-28T00:36:14.178Z,2.13
2023-03-28T00:42:34.179Z,2.04
2023-03-28T00:48:57.341Z,1.91
2023-03-28T00:55:17.294Z,1.8
2023-03-28T01:01:40.304Z,1.65
2023-03-28T01:08:00.173Z,1.55
2023-03-28T01:14:23.311Z,1.4
2023-03-28T01:20:43.270Z,1.31
2023-03-28T01:27:06.302Z,1.25
2023-03-28T01:33:26.248Z,1.21
2023-03-28T01:39:49.323Z,1.14
2023-03-28T01:46:09.230Z,1.06
2023-03-28T01:52:32.190Z,1.01
2023-03-28T01:58:52.215Z,0.97
2023-03-28T02:05:15.382Z,0.88
2023-03-28T02:11:35.250Z,0.82
2023-03-28T02:17:58.431Z,0.78
2023-03-28T02:24:18.216Z,0.75
2023-03-28T02:30:41.197Z,0.66
2023-03-28T02:37:01.173Z,0.68
2023-03-28T02:43:24.287Z,0.7
2023-03-28T02:49:50.241Z,0.65
2023-03-28T02:56:07.253Z,0.62
2023-03-28T03:02:27.260Z,0.56
2023-03-28T03:08:50.198Z,0.48
2023-03-28T03:15:10.326Z,0.44
2023-03-28T03:21:33.174Z,0.48
2023-03-28T03:27:53.308Z,0.43
2023-03-28T03:34:16.187Z,0.39
2023-03-28T03:40:36.361Z,0.48
2023-03-28T03:46:59.193Z,0.57
2023-03-28T03:53:19.212Z,0.57
2023-03-28T03:59:42.150Z,0.59
2023-03-28T04:06:02.379Z,0.57
2023-03-28T04:29:51.190Z,0.38
2023-03-28T04:36:14.174Z,0.3
2023-03-28T04:42:34.223Z,0.27
2023-03-28T04:48:57.241Z,0.2
2023-03-28T04:55:17.195Z,0.14
2023-03-28T05:01:40.204Z,0.14
2023-03-28T05:08:00.305Z,0.14
2023-03-28T05:14:23.182Z,0.11
2023-03-28T05:20:43.229Z,0.05
2023-03-28T05:27:06.188Z,-0.02
2023-03-28T05:33:26.269Z,-0.02
2023-03-28T05:39:49.199Z,0
2023-03-28T05:46:09.385Z,0.01
2023-03-28T05:52:32.195Z,0.07
2023-03-28T05:58:52.210Z,0.12
2023-03-28T06:05:15.239Z,0.13
2023-03-28T06:11:35.236Z,0.12
2023-03-28T06:17:58.370Z,0.11
2023-03-28T06:24:18.233Z,0.14
2023-03-28T06:30:41.230Z,0.12
2023-03-28T06:37:01.223Z,0.18
2023-03-28T06:43:24.213Z,0.3
2023-03-28T06:49:44.173Z,0.52
2023-03-28T06:56:07.259Z,0.73
2023-03-28T07:02:27.344Z,0.97
2023-03-28T07:08:50.209Z,1.19
2023-03-28T07:15:10.182Z,1.38
2023-03-28T07:21:33.239Z,1.58
2023-03-28T07:27:53.263Z,1.75
2023-03-28T07:34:16.233Z,1.97
2023-03-28T07:40:36.289Z,2.2
2023-03-28T07:46:59.211Z,2.42
2023-03-28T07:53:19.201Z,2.71
2023-03-28T07:59:45.934Z,2.99
2023-03-28T08:06:11.289Z,3.24
2023-03-28T08:12:29.267Z,3.56
2023-03-28T08:18:54.474Z,3.9
2023-03-28T08:25:12.235Z,4.21
2023-03-28T08:31:32.290Z,4.45
2023-03-28T08:37:55.242Z,4.67
2023-03-28T08:44:15.433Z,4.83
2023-03-28T08:50:38.375Z,5.02
2023-03-28T08:56:58.457Z,5.18
2023-03-28T09:03:21.314Z,5.45
2023-03-28T09:09:41.255Z,5.8
2023-03-28T09:25:52.106Z,6.62
2023-03-28T09:32:12.206Z,6.76
2023-03-28T09:38:35.165Z,6.85
2023-03-28T09:44:55.219Z,6.85
2023-03-28T09:51:18.201Z,6.98
2023-03-28T09:57:38.238Z,7.3
2023-03-28T10:04:01.245Z,7.57
2023-03-28T10:10:21.255Z,7.71
2023-03-28T10:16:44.196Z,8.11
2023-03-28T10:23:04.607Z,8.32
2023-03-28T10:29:27.205Z,8.55
2023-03-28T10:35:47.202Z,8.63
2023-03-28T10:42:10.230Z,8.75
2023-03-28T10:48:30.159Z,8.76
2023-03-28T10:54:53.155Z,8.93
2023-03-28T11:01:13.429Z,9.26
2023-03-28T11:07:36.162Z,9.59
2023-03-28T11:13:56.221Z,9.92
2023-03-28T11:20:19.190Z,9.82
2023-03-28T11:26:39.154Z,9.74
2023-03-28T11:33:02.200Z,9.88
2023-03-28T11:39:22.199Z,10.13
2023-03-28T11:45:51.740Z,10.03
2023-03-28T11:52:05.178Z,10.09
2023-03-28T11:58:28.393Z,10.09
2023-03-28T12:04:48.215Z,10.11
2023-03-28T12:11:11.550Z,10.12
2023-03-28T12:17:31.390Z,10.25
2023-03-28T12:23:54.232Z,10.78
2023-03-28T12:30:14.166Z,11.5
2023-03-28T12:36:37.194Z,12
2023-03-28T12:42:57.166Z,12.05
2023-03-28T12:49:20.192Z,12.72
2023-03-28T12:55:40.245Z,13.36
2023-03-28T13:02:03.200Z,13.72
2023-03-28T13:08:24.270Z,13.63
2023-03-28T13:14:46.210Z,13.46
2023-03-28T13:21:06.192Z,13.49
2023-03-28T13:27:29.182Z,13.14
2023-03-28T13:33:49.241Z,12.79
2023-03-28T13:40:12.176Z,12.64
2023-03-28T13:46:32.241Z,12.55
2023-03-28T13:52:55.212Z,12.36
2023-03-28T13:59:15.205Z,12.35
2023-03-28T14:05:38.234Z,12.45
2023-03-28T14:11:58.213Z,12.77
2023-03-28T14:18:21.193Z,13.1
2023-03-28T14:24:41.184Z,13.55
2023-03-28T14:31:04.259Z,13.77
2023-03-28T14:54:28.316Z,13.94
2023-03-28T15:00:47.210Z,13.72
2023-03-28T15:07:10.215Z,13.55
2023-03-28T15:13:30.204Z,13.57
2023-03-28T15:19:53.200Z,13.32
2023-03-28T15:26:13.182Z,12.83
2023-03-28T15:32:36.228Z,12.63
2023-03-28T15:38:56.190Z,12.61
2023-03-28T15:45:19.195Z,12.63
2023-03-28T15:51:39.432Z,12.63
2023-03-28T15:58:02.209Z,12.52
2023-03-28T16:04:22.469Z,12.27
2023-03-28T16:10:45.241Z,11.89
2023-03-28T16:17:07.789Z,11.64
2023-03-28T16:23:31.245Z,11.46
2023-03-28T16:29:51.458Z,11.34
2023-03-28T16:36:14.237Z,11.2
2023-03-28T16:42:34.223Z,11.15
2023-03-28T16:48:57.200Z,11.07
2023-03-28T16:55:17.187Z,11
2023-03-28T17:01:40.229Z,10.97
2023-03-28T17:08:00.254Z,10.87
2023-03-28T17:14:23.167Z,10.73
2023-03-28T17:20:43.186Z,10.52
2023-03-28T17:27:06.512Z,10.35
2023-03-28T17:33:26.269Z,10.23
2023-03-28T17:39:49.222Z,10.1
2023-03-28T17:46:09.244Z,9.99
2023-03-28T17:52:32.202Z,9.9
2023-03-28T17:58:52.186Z,9.84
2023-03-28T18:05:15.217Z,9.79
2023-03-28T18:11:35.212Z,9.73
2023-03-28T18:17:58.226Z,9.7
2023-03-28T18:24:18.290Z,9.63
2023-03-28T18:30:41.253Z,9.6
2023-03-28T18:37:01.175Z,9.57
2023-03-28T18:43:24.445Z,9.53
2023-03-28T18:49:44.152Z,9.44
2023-03-28T18:56:07.259Z,9.4
2023-03-28T19:02:27.280Z,9.36
2023-03-28T19:08:50.261Z,9.06
2023-03-28T19:15:10.290Z,8.61
2023-03-28T19:21:33.206Z,8.14
2023-03-28T19:27:53.253Z,7.74
2023-03-28T19:34:16.241Z,7.44
2023-03-28T19:40:36.195Z,7.18
2023-03-28T19:46:59.218Z,6.96
2023-03-28T20:02:30.119Z,6.74
2023-03-28T20:08:50.156Z,6.78
2023-03-28T20:15:13.153Z,6.74
2023-03-28T20:21:33.258Z,6.65
2023-03-28T20:27:56.202Z,6.55
2023-03-28T20:34:16.868Z,6.49
2023-03-28T20:40:40.187Z,6.43
2023-03-28T20:47:00.245Z,6.39
2023-03-28T20:53:23.235Z,6.37
2023-03-28T20:59:43.190Z,6.35
2023-03-28T21:06:06.193Z,6.36
2023-03-28T21:12:26.214Z,6.27
2023-03-28T21:18:49.217Z,6.12
2023-03-28T21:25:09.204Z,6.01
2023-03-28T21:31:32.239Z,5.94
2023-03-28T21:37:52.238Z,5.86
2023-03-28T21:44:15.147Z,5.83
2023-03-28T21:50:35.172Z,5.79
2023-03-28T21:56:58.272Z,5.78
2023-03-28T22:03:18.432Z,5.79
2023-03-28T22:09:41.329Z,5.82
2023-03-28T22:16:01.274Z,5.82
2023-03-28T22:22:24.316Z,5.78
2023-03-28T22:28:44.222Z,5.74
2023-03-28T22:35:07.255Z,5.71
2023-03-28T22:41:27.217Z,5.68
2023-03-28T22:47:50.258Z,5.65
2023-03-28T22:54:10.262Z,5.64
2023-03-28T23:00:33.232Z,5.63
2023-03-28T23:23:31.233Z,5.57
2023-03-28T23:29:51.151Z,5.57
2023-03-28T23:36:14.247Z,5.59
2023-03-28T23:42:34.256Z,5.61
2023-03-28T23:48:57.239Z,5.59
2023-03-28T23:55:17.164Z,5.58
